Time;durP1;ratioP1;P1;durP2;ratioP2;P2;SDS_P1;SDS_P2;PMS_P1;PMS_P2;Temp;Humidity;BMP_temperature;BMP_pressure;BME280_temperature;BME280_humidity;BME280_pressure;Samples;Min_cycle;Max_cycle;Signal;HPM_P1;HPM_P2
2022/06/11 00:00:56;;;;;;;1.00;0.77;;;;;22.50;100994.00;;;;2063876;28;20219;-58
2022/06/11 00:02:02;;;;;;;1.03;0.90;;;;;22.50;100994.00;;;;2074936;28;20633;-58
2022/06/11 00:03:02;;;;;;;0.90;0.68;;;;;22.50;100993.00;;;;2070710;28;20226;-58
2022/06/11 00:04:12;;;;;;;1.10;0.93;;;;;22.50;101000.00;;;;2078294;28;20214;-58
2022/06/11 00:05:12;;;;;;;1.02;0.93;;;;;22.50;100997.00;;;;2078652;28;20640;-58
2022/06/11 00:06:13;;;;;;;0.90;0.70;;;;;22.40;101001.00;;;;2078177;28;20225;-59
2022/06/11 00:07:16;;;;;;;1.07;0.90;;;;;22.40;100992.00;;;;2071542;28;20229;-59
2022/06/11 00:08:16;;;;;;;0.80;0.60;;;;;22.40;100997.00;;;;2078128;28;20229;-61
2022/06/11 00:09:17;;;;;;;0.90;0.70;;;;;22.50;100996.00;;;;2077020;28;20296;-59
2022/06/11 00:10:18;;;;;;;0.97;0.73;;;;;22.50;101000.00;;;;2079148;28;20220;-58
2022/06/11 00:11:18;;;;;;;1.10;0.90;;;;;22.50;101002.00;;;;2067454;28;20454;-58
2022/06/11 00:12:19;;;;;;;2.70;0.70;;;;;22.50;101004.00;;;;2067448;28;20785;-62
2022/06/11 00:13:22;;;;;;;0.90;0.80;;;;;22.50;101004.00;;;;2071024;28;20237;-60
2022/06/11 00:14:24;;;;;;;0.90;0.77;;;;;22.50;101004.00;;;;2079302;28;20214;-57
2022/06/11 00:15:24;;;;;;;1.02;0.80;;;;;22.50;100998.00;;;;2067020;28;20211;-58
2022/06/11 00:16:25;;;;;;;1.03;0.80;;;;;22.50;101000.00;;;;2062664;28;20866;-58
2022/06/11 00:17:26;;;;;;;0.80;0.70;;;;;22.50;101008.00;;;;2076446;28;21664;-60
2022/06/11 00:18:26;;;;;;;1.27;1.00;;;;;22.50;100998.00;;;;2078811;28;20217;-57
2022/06/11 00:19:27;;;;;;;0.80;0.67;;;;;22.50;100998.00;;;;2079137;28;20456;-58
2022/06/11 00:20:27;;;;;;;1.50;0.80;;;;;22.50;101003.00;;;;2079103;28;20717;-59
2022/06/11 00:21:30;;;;;;;1.03;0.60;;;;;22.50;101000.00;;;;2069839;28;20218;-58
2022/06/11 00:22:30;;;;;;;1.10;0.82;;;;;22.50;101001.00;;;;2062360;28;20227;-58
2022/06/11 00:23:31;;;;;;;1.37;0.90;;;;;22.50;101001.00;;;;2077722;28;20253;-58
2022/06/11 00:24:31;;;;;;;0.73;0.73;;;;;22.50;101000.00;;;;2069615;28;20261;-58
2022/06/11 00:25:32;;;;;;;1.17;1.07;;;;;22.50;100999.00;;;;2063592;28;20599;-59
2022/06/11 00:26:33;;;;;;;0.85;0.70;;;;;22.50;101000.00;;;;2077705;28;20264;-59
2022/06/11 00:27:33;;;;;;;0.90;0.70;;;;;22.40;101005.00;;;;2078575;28;20244;-59
2022/06/11 00:28:34;;;;;;;1.10;0.97;;;;;22.50;100998.00;;;;2077751;28;20348;-60
2022/06/11 00:29:35;;;;;;;1.00;0.90;;;;;22.50;100998.00;;;;2067784;28;20321;-58
2022/06/11 00:30:35;;;;;;;1.00;0.63;;;;;22.50;101000.00;;;;2072312;28;20693;-58
2022/06/11 00:31:36;;;;;;;1.10;0.80;;;;;22.50;100998.00;;;;2078421;28;20212;-59
2022/06/11 00:32:36;;;;;;;1.00;0.80;;;;;22.40;100996.00;;;;2078291;28;20271;-58
2022/06/11 00:33:37;;;;;;;0.90;0.90;;;;;22.50;100985.00;;;;2077882;28;20233;-58
2022/06/11 00:34:38;;;;;;;1.53;0.80;;;;;22.40;100998.00;;;;2069133;28;20225;-58
2022/06/11 00:35:39;;;;;;;0.70;0.65;;;;;22.40;100990.00;;;;2069553;28;20460;-58
2022/06/11 00:36:39;;;;;;;1.40;1.00;;;;;22.50;101000.00;;;;2077514;28;20305;-58
2022/06/11 00:37:40;;;;;;;1.10;0.80;;;;;22.50;101001.00;;;;2078691;28;20293;-58
2022/06/11 00:38:40;;;;;;;1.20;1.00;;;;;22.50;101009.00;;;;2078931;28;20213;-58
2022/06/11 00:39:41;;;;;;;1.27;0.90;;;;;22.40;100998.00;;;;2078720;28;20218;-56
2022/06/11 00:40:43;;;;;;;1.10;0.90;;;;;22.40;101001.00;;;;2077741;28;20217;-58
2022/06/11 00:41:45;;;;;;;1.25;1.10;;;;;22.40;101004.00;;;;2077918;28;20264;-58
2022/06/11 00:42:46;;;;;;;1.17;0.80;;;;;22.40;100998.00;;;;2078065;28;20214;-59
2022/06/11 00:43:46;;;;;;;0.93;0.70;;;;;22.40;101002.00;;;;2078023;28;20217;-58
2022/06/11 00:44:47;;;;;;;0.80;0.67;;;;;22.40;101001.00;;;;2078574;28;20236;-56
2022/06/11 00:45:50;;;;;;;1.00;0.90;;;;;22.40;100996.00;;;;2077339;28;20214;-58
2022/06/11 00:47:12;;;;;;;0.85;0.68;;;;;22.40;101007.00;;;;2077951;28;20217;-58
2022/06/11 00:48:17;;;;;;;0.80;0.70;;;;;22.40;101000.00;;;;2060139;28;20849;-59
2022/06/11 00:49:41;;;;;;;1.52;1.08;;;;;22.40;101002.00;;;;2048279;28;20688;-58
2022/06/11 00:50:54;;;;;;;1.75;0.95;;;;;22.40;100995.00;;;;2059179;28;20233;-55
2022/06/11 00:52:09;;;;;;;1.42;0.88;;;;;22.40;100996.00;;;;2061875;28;20223;-58
2022/06/11 00:53:34;;;;;;;0.90;0.80;;;;;22.50;100992.00;;;;2064440;28;20209;-58
2022/06/11 00:54:35;;;;;;;1.25;1.08;;;;;22.40;100988.00;;;;2064410;28;20264;-57
2022/06/11 00:55:38;;;;;;;1.00;0.70;;;;;22.50;100989.00;;;;2063859;28;20218;-55
2022/06/11 00:56:41;;;;;;;1.00;0.80;;;;;22.40;100995.00;;;;2067097;28;20249;-57
2022/06/11 00:57:45;;;;;;;1.08;0.80;;;;;22.50;100997.00;;;;2061441;28;20277;-57
2022/06/11 00:58:46;;;;;;;1.20;1.00;;;;;22.40;100992.00;;;;2054587;28;20265;-58
2022/06/11 00:59:50;;;;;;;3.70;0.90;;;;;22.40;100996.00;;;;2064463;28;20213;-56
2022/06/11 01:00:53;;;;;;;0.90;0.68;;;;;22.40;100996.00;;;;2077636;28;20224;-59
2022/06/11 01:01:53;;;;;;;1.10;0.95;;;;;22.40;100996.00;;;;2077796;28;20249;-59
2022/06/11 01:02:53;;;;;;;1.20;0.80;;;;;22.50;100997.00;;;;2078344;28;20243;-57
2022/06/11 01:03:55;;;;;;;0.73;0.70;;;;;22.40;100995.00;;;;2078068;28;20304;-58
2022/06/11 01:04:58;;;;;;;0.88;0.77;;;;;22.40;100989.00;;;;2069186;28;20224;-56
2022/06/11 01:06:27;;;;;;;0.90;0.63;;;;;22.40;100997.00;;;;2069256;28;20268;-59
2022/06/11 01:07:40;;;;;;;1.10;0.80;;;;;22.40;100993.00;;;;2067447;28;20214;-62
2022/06/11 01:09:07;;;;;;;1.10;0.80;;;;;22.50;100992.00;;;;2073718;28;20217;-58
2022/06/11 01:10:40;;;;;;;1.00;0.90;;;;;22.50;100983.00;;;;2074659;28;20248;-58
2022/06/11 01:12:06;;;;;;;0.75;0.60;;;;;22.50;100996.00;;;;2062522;28;20223;-62
2022/06/11 01:13:34;;;;;;;0.85;0.80;;;;;22.50;100989.00;;;;2060125;28;20218;-58
2022/06/11 01:14:45;;;;;;;1.50;0.70;;;;;22.40;100990.00;;;;2071047;28;20239;-57
2022/06/11 01:15:48;;;;;;;0.95;0.80;;;;;22.40;100993.00;;;;2066186;28;20225;-57
2022/06/11 01:17:08;;;;;;;0.95;0.80;;;;;22.50;100995.00;;;;2069284;28;20300;-63
2022/06/11 01:18:38;;;;;;;1.15;1.00;;;;;22.50;100996.00;;;;2064449;28;20675;-60
2022/06/11 01:20:12;;;;;;;0.80;0.70;;;;;22.50;100993.00;;;;2058197;28;20215;-59
2022/06/11 01:21:29;;;;;;;0.90;0.77;;;;;22.50;100980.00;;;;2066042;28;20301;-57
2022/06/11 01:22:43;;;;;;;0.98;0.70;;;;;22.50;100994.00;;;;2068679;28;20214;-58
2022/06/11 01:24:13;;;;;;;1.45;0.90;;;;;22.50;100985.00;;;;2063001;28;20571;-59
2022/06/11 01:25:37;;;;;;;1.10;0.90;;;;;22.40;100993.00;;;;2065029;28;20226;-57
2022/06/11 01:26:53;;;;;;;1.10;0.82;;;;;22.40;100994.00;;;;2064046;28;20694;-57
2022/06/11 01:27:59;;;;;;;1.00;0.90;;;;;22.40;100991.00;;;;2061013;28;20857;-58
2022/06/11 01:29:21;;;;;;;1.17;1.08;;;;;22.40;100990.00;;;;2063469;28;20219;-58
2022/06/11 01:30:23;;;;;;;0.82;0.80;;;;;22.40;100992.00;;;;2068620;28;20284;-58
2022/06/11 01:31:56;;;;;;;0.95;0.85;;;;;22.40;100993.00;;;;2060838;28;20223;-58
2022/06/11 01:33:17;;;;;;;1.20;0.85;;;;;22.40;100980.00;;;;2065806;28;20404;-58
2022/06/11 01:34:27;;;;;;;1.63;1.00;;;;;22.40;100992.00;;;;2054111;28;20208;-60
2022/06/11 01:35:52;;;;;;;1.00;0.70;;;;;22.40;100998.00;;;;2047709;28;20714;-57
2022/06/11 01:36:55;;;;;;;0.93;0.82;;;;;22.40;100993.00;;;;2068407;28;20225;-59
2022/06/11 01:38:27;;;;;;;1.38;1.02;;;;;22.40;100991.00;;;;2077378;28;20213;-57
2022/06/11 01:39:52;;;;;;;1.08;0.95;;;;;22.40;101000.00;;;;2063743;28;20226;-58
2022/06/11 01:41:31;;;;;;;1.10;0.75;;;;;22.40;100994.00;;;;2068684;28;20305;-57
2022/06/11 01:42:35;;;;;;;1.15;0.90;;;;;22.40;100995.00;;;;2068783;28;20222;-58
2022/06/11 01:43:39;;;;;;;1.58;1.15;;;;;22.40;100989.00;;;;2061135;28;20230;-57
2022/06/11 01:44:41;;;;;;;1.00;0.90;;;;;22.40;100994.00;;;;2050677;28;20226;-56
2022/06/11 01:45:41;;;;;;;0.93;0.75;;;;;22.40;100990.00;;;;2060993;28;20659;-58
2022/06/11 01:46:44;;;;;;;1.47;0.77;;;;;22.40;100992.00;;;;2068790;28;20228;-58
2022/06/11 01:47:44;;;;;;;0.90;0.80;;;;;22.40;100989.00;;;;2069281;28;20241;-59
2022/06/11 01:49:20;;;;;;;0.90;0.80;;;;;22.40;100992.00;;;;2069387;28;20694;-59
2022/06/11 01:50:22;;;;;;;1.35;1.05;;;;;22.40;100997.00;;;;2067723;28;20217;-57
2022/06/11 01:51:46;;;;;;;1.00;0.82;;;;;22.40;100988.00;;;;2069552;28;20210;-57
2022/06/11 01:52:52;;;;;;;1.40;0.80;;;;;22.40;100997.00;;;;2057181;28;20625;-59
2022/06/11 01:54:11;;;;;;;0.93;0.70;;;;;22.40;100990.00;;;;2069692;28;20218;-58
2022/06/11 01:55:30;;;;;;;1.13;0.80;;;;;22.40;100997.00;;;;2069757;28;20214;-58
2022/06/11 01:56:55;;;;;;;1.33;1.02;;;;;22.40;100985.00;;;;2070243;28;20225;-58
2022/06/11 01:58:04;;;;;;;1.30;0.75;;;;;22.40;100996.00;;;;2068790;28;20276;-58
2022/06/11 01:59:04;;;;;;;1.42;0.98;;;;;22.40;101002.00;;;;2064888;28;20347;-59
2022/06/11 02:00:04;;;;;;;0.90;0.80;;;;;22.40;100994.00;;;;2069624;28;20218;-58
2022/06/11 02:01:20;;;;;;;1.07;0.90;;;;;22.40;101000.00;;;;2069772;28;20229;-56
2022/06/11 02:02:41;;;;;;;0.90;0.70;;;;;22.40;100995.00;;;;2067004;28;20214;-57
2022/06/11 02:04:02;;;;;;;1.00;0.90;;;;;22.40;101000.00;;;;2067185;28;20214;-58
2022/06/11 02:05:02;;;;;;;1.00;0.90;;;;;22.40;101004.00;;;;2059984;28;20294;-57
2022/06/11 02:06:05;;;;;;;1.20;0.80;;;;;22.40;100993.00;;;;2069836;28;20280;-57
2022/06/11 02:07:30;;;;;;;0.80;0.52;;;;;22.40;101008.00;;;;2069311;28;20244;-55
2022/06/11 02:08:37;;;;;;;0.90;0.73;;;;;22.40;101007.00;;;;2064139;28;20210;-58
2022/06/11 02:09:51;;;;;;;0.95;0.70;;;;;22.40;101001.00;;;;2069622;28;20268;-56
2022/06/11 02:11:18;;;;;;;1.08;0.98;;;;;22.40;101004.00;;;;2068939;28;20221;-58
2022/06/11 02:12:41;;;;;;;0.80;0.80;;;;;22.40;101013.00;;;;2065751;28;20297;-58
2022/06/11 02:13:43;;;;;;;1.27;0.82;;;;;22.40;101009.00;;;;2061024;28;20238;-57
2022/06/11 02:14:46;;;;;;;1.00;0.80;;;;;22.40;100998.00;;;;2061951;28;20234;-58
2022/06/11 02:15:53;;;;;;;2.05;0.90;;;;;22.40;101009.00;;;;2076649;28;20686;-57
2022/06/11 02:17:13;;;;;;;1.30;0.90;;;;;22.40;101010.00;;;;2061321;28;20225;-57
2022/06/11 02:18:15;;;;;;;1.05;0.80;;;;;22.40;101011.00;;;;2066401;28;20221;-57
2022/06/11 02:19:18;;;;;;;1.20;0.95;;;;;22.40;101001.00;;;;2062766;28;20226;-58
2022/06/11 02:20:25;;;;;;;1.63;1.00;;;;;22.40;101007.00;;;;2055271;28;20247;-58
2022/06/11 02:21:28;;;;;;;1.10;0.73;;;;;22.40;101013.00;;;;2063475;28;20230;-56
2022/06/11 02:22:34;;;;;;;1.20;0.80;;;;;22.40;101009.00;;;;2071276;28;20218;-57
2022/06/11 02:23:43;;;;;;;1.05;0.80;;;;;22.40;100943.00;;;;2071035;28;21360;-58
2022/06/11 02:25:04;;;;;;;0.95;0.80;;;;;22.40;101014.00;;;;2063320;28;20253;-58
2022/06/11 02:26:11;;;;;;;1.02;0.93;;;;;22.40;101002.00;;;;2062423;28;20222;-59
2022/06/11 02:27:14;;;;;;;1.10;0.85;;;;;22.40;100999.00;;;;2060836;28;20211;-57
2022/06/11 02:28:19;;;;;;;0.98;0.70;;;;;22.40;101008.00;;;;2062824;28;20253;-62
2022/06/11 02:29:20;;;;;;;1.10;0.90;;;;;22.40;101019.00;;;;2068788;28;20221;-58
2022/06/11 02:30:22;;;;;;;1.38;1.10;;;;;22.40;101016.00;;;;2060580;28;20219;-62
2022/06/11 02:31:25;;;;;;;0.90;0.80;;;;;22.40;101012.00;;;;2067391;28;20679;-58
2022/06/11 02:32:28;;;;;;;1.20;0.85;;;;;22.40;101016.00;;;;2062887;28;20710;-58
2022/06/11 02:33:30;;;;;;;1.13;0.93;;;;;22.40;101017.00;;;;2063207;28;20257;-58
2022/06/11 02:34:30;;;;;;;0.98;0.88;;;;;22.40;101014.00;;;;2070728;28;20955;-58
2022/06/11 02:35:46;;;;;;;1.10;0.90;;;;;22.40;101019.00;;;;2070642;28;20214;-58
2022/06/11 02:37:05;;;;;;;1.05;0.82;;;;;22.40;101018.00;;;;2070535;28;20702;-59
2022/06/11 02:38:09;;;;;;;1.35;0.93;;;;;22.40;101014.00;;;;2066674;28;20213;-58
2022/06/11 02:39:09;;;;;;;1.00;0.80;;;;;22.40;101014.00;;;;2062796;28;20225;-59
2022/06/11 02:40:17;;;;;;;1.10;0.80;;;;;22.40;101004.00;;;;2070703;28;20218;-58
2022/06/11 02:41:22;;;;;;;0.93;0.80;;;;;22.40;101010.00;;;;2070277;28;20737;-59
2022/06/11 02:42:23;;;;;;;0.85;0.75;;;;;22.40;101006.00;;;;2062470;28;20211;-59
2022/06/11 02:43:23;;;;;;;1.10;1.00;;;;;22.40;101016.00;;;;2055100;28;20887;-59
2022/06/11 02:44:24;;;;;;;1.00;0.77;;;;;22.40;101012.00;;;;2070181;28;20741;-59
2022/06/11 02:45:24;;;;;;;1.23;1.10;;;;;22.40;101010.00;;;;2070953;28;20218;-58
2022/06/11 02:46:46;;;;;;;1.60;0.87;;;;;22.40;101015.00;;;;2071378;28;20745;-59
2022/06/11 02:47:47;;;;;;;0.90;0.70;;;;;22.40;101018.00;;;;2070763;28;20234;-59
2022/06/11 02:48:48;;;;;;;0.90;0.80;;;;;22.40;101022.00;;;;2065726;28;20281;-59
2022/06/11 02:49:48;;;;;;;1.27;1.10;;;;;22.30;101018.00;;;;2070181;28;20268;-60
2022/06/11 02:50:49;;;;;;;1.00;0.80;;;;;22.30;101027.00;;;;2071437;28;20213;-59
2022/06/11 02:51:50;;;;;;;1.33;1.03;;;;;22.40;101025.00;;;;2071002;28;20627;-59
2022/06/11 02:52:51;;;;;;;1.02;0.80;;;;;22.30;101025.00;;;;2071377;28;20709;-59
2022/06/11 02:53:52;;;;;;;1.20;0.80;;;;;22.40;101022.00;;;;2070663;28;20225;-58
2022/06/11 02:54:52;;;;;;;1.10;0.83;;;;;22.40;101020.00;;;;2070551;28;20557;-58
2022/06/11 02:55:53;;;;;;;1.10;0.90;;;;;22.40;101018.00;;;;2070943;28;20744;-58
2022/06/11 02:56:54;;;;;;;1.20;0.80;;;;;22.40;101019.00;;;;2071161;28;20421;-58
2022/06/11 02:57:55;;;;;;;1.88;1.10;;;;;22.40;101019.00;;;;2070482;28;20260;-59
2022/06/11 02:58:55;;;;;;;0.77;0.63;;;;;22.40;101011.00;;;;2070245;28;20222;-58
2022/06/11 02:59:56;;;;;;;1.03;0.80;;;;;22.40;101025.00;;;;2070465;28;20275;-58
2022/06/11 03:00:56;;;;;;;0.90;0.70;;;;;22.40;101018.00;;;;2070165;28;20265;-59
2022/06/11 03:01:56;;;;;;;1.10;0.90;;;;;22.40;101011.00;;;;2071319;28;20222;-58
2022/06/11 03:02:57;;;;;;;1.37;0.90;;;;;22.40;101013.00;;;;2076754;28;20625;-58
2022/06/11 03:03:57;;;;;;;1.10;0.80;;;;;22.40;101014.00;;;;2074423;28;20210;-58
2022/06/11 03:04:58;;;;;;;1.20;1.00;;;;;22.40;101018.00;;;;2063527;28;20210;-57
2022/06/11 03:05:58;;;;;;;1.20;1.00;;;;;22.40;101025.00;;;;2074860;28;20293;-62
2022/06/11 03:06:59;;;;;;;0.90;0.80;;;;;22.30;101015.00;;;;2070106;28;20206;-59
2022/06/11 03:08:01;;;;;;;1.55;0.80;;;;;22.30;101026.00;;;;2062733;28;20706;-60
2022/06/11 03:09:01;;;;;;;1.00;0.70;;;;;22.30;101027.00;;;;2062068;28;20226;-57
2022/06/11 03:10:02;;;;;;;1.00;0.80;;;;;22.30;101019.00;;;;2062103;28;20294;-58
2022/06/11 03:11:02;;;;;;;1.10;0.80;;;;;22.30;101026.00;;;;2075386;28;20218;-56
2022/06/11 03:12:04;;;;;;;3.63;1.03;;;;;22.30;101032.00;;;;2070327;28;20929;-58
2022/06/11 03:13:05;;;;;;;1.20;0.90;;;;;22.30;101016.00;;;;2070370;28;20218;-57
2022/06/11 03:14:05;;;;;;;1.20;0.80;;;;;22.30;101026.00;;;;2079310;28;20218;-59
2022/06/11 03:15:06;;;;;;;1.33;0.90;;;;;22.30;101033.00;;;;2079206;28;20298;-57
2022/06/11 03:16:07;;;;;;;1.10;0.80;;;;;22.30;101032.00;;;;2078212;28;20213;-57
2022/06/11 03:17:07;;;;;;;1.33;1.10;;;;;22.30;101032.00;;;;2070483;28;20214;-57
2022/06/11 03:18:07;;;;;;;1.17;0.90;;;;;22.30;101033.00;;;;2070484;28;20698;-58
2022/06/11 03:19:08;;;;;;;0.90;0.80;;;;;22.30;101028.00;;;;2078573;28;20319;-58
2022/06/11 03:20:09;;;;;;;2.20;0.93;;;;;22.30;101028.00;;;;2078471;28;20213;-59
2022/06/11 03:21:10;;;;;;;1.00;0.90;;;;;22.30;101033.00;;;;2070187;28;20218;-59
2022/06/11 03:22:10;;;;;;;1.00;0.80;;;;;22.30;101033.00;;;;2070548;28;20256;-58
2022/06/11 03:23:11;;;;;;;1.57;1.00;;;;;22.30;100952.00;;;;2078162;28;20593;-57
2022/06/11 03:24:11;;;;;;;1.70;0.87;;;;;22.40;101035.00;;;;2070664;28;20733;-55
2022/06/11 03:25:12;;;;;;;1.37;1.10;;;;;22.40;101028.00;;;;2062117;28;20210;-56
2022/06/11 03:26:12;;;;;;;1.67;1.13;;;;;22.30;101034.00;;;;2069655;28;20225;-58
2022/06/11 03:27:13;;;;;;;1.40;0.80;;;;;22.30;101035.00;;;;2078301;28;20213;-56
2022/06/11 03:28:20;;;;;;;1.08;0.90;;;;;22.30;101035.00;;;;2070246;28;20214;-58
2022/06/11 03:29:21;;;;;;;1.20;0.90;;;;;22.30;101030.00;;;;2070897;28;20293;-58
2022/06/11 03:30:21;;;;;;;1.80;0.80;;;;;22.30;101042.00;;;;2061802;28;20313;-57
2022/06/11 03:31:22;;;;;;;1.10;0.90;;;;;22.30;101035.00;;;;2070266;28;20218;-58
2022/06/11 03:32:22;;;;;;;1.10;0.97;;;;;22.30;101038.00;;;;2086773;28;20861;-56
2022/06/11 03:33:24;;;;;;;0.93;0.83;;;;;22.30;101040.00;;;;2086860;28;20782;-59
2022/06/11 03:34:24;;;;;;;1.20;0.90;;;;;22.30;101034.00;;;;2078663;28;20240;-61
2022/06/11 03:35:25;;;;;;;1.47;1.00;;;;;22.30;101043.00;;;;2073319;28;20218;-60
2022/06/11 03:36:25;;;;;;;1.20;0.80;;;;;22.30;101045.00;;;;2070925;28;20214;-59
2022/06/11 03:37:25;;;;;;;1.10;0.97;;;;;22.30;101045.00;;;;2061200;28;20218;-58
2022/06/11 03:38:26;;;;;;;0.97;0.80;;;;;22.30;101038.00;;;;2062120;28;20203;-58
2022/06/11 03:39:26;;;;;;;1.60;1.00;;;;;22.30;101033.00;;;;2070332;28;20753;-59
2022/06/11 03:40:27;;;;;;;0.97;0.87;;;;;22.40;101041.00;;;;2070800;28;20206;-58
2022/06/11 03:41:28;;;;;;;1.00;0.90;;;;;22.40;101042.00;;;;2061909;28;20269;-59
2022/06/11 03:42:28;;;;;;;1.45;1.00;;;;;22.30;101054.00;;;;2062391;28;20214;-57
2022/06/11 03:43:29;;;;;;;0.90;0.70;;;;;22.30;101043.00;;;;2078464;28;20209;-58
2022/06/11 03:44:29;;;;;;;0.83;0.73;;;;;22.30;101047.00;;;;2070948;28;20462;-58
2022/06/11 03:45:29;;;;;;;1.30;1.00;;;;;22.30;101044.00;;;;2070549;28;20210;-59
2022/06/11 03:46:30;;;;;;;1.13;1.00;;;;;22.30;101045.00;;;;2070765;28;20210;-60
2022/06/11 03:47:30;;;;;;;2.20;1.13;;;;;22.40;101050.00;;;;2061704;28;21044;-58
2022/06/11 03:48:32;;;;;;;1.00;0.83;;;;;22.30;101051.00;;;;2061805;28;20215;-59
2022/06/11 03:49:32;;;;;;;0.90;0.77;;;;;22.30;101052.00;;;;2070929;28;20213;-60
2022/06/11 03:50:34;;;;;;;1.57;1.10;;;;;22.30;101046.00;;;;2070091;28;20873;-56
2022/06/11 03:51:35;;;;;;;1.85;0.73;;;;;22.30;101050.00;;;;2054200;28;20294;-55
2022/06/11 03:52:35;;;;;;;0.90;0.90;;;;;22.30;101045.00;;;;2061135;28;20564;-58
2022/06/11 03:53:36;;;;;;;1.00;0.90;;;;;22.30;101050.00;;;;2069854;28;20348;-58
2022/06/11 03:54:36;;;;;;;1.40;0.87;;;;;22.30;101046.00;;;;2061584;28;20705;-57
2022/06/11 03:55:37;;;;;;;1.10;1.00;;;;;22.30;101058.00;;;;2068973;28;20297;-56
2022/06/11 03:56:37;;;;;;;1.27;0.90;;;;;22.30;101051.00;;;;2069210;28;20885;-58
2022/06/11 03:57:38;;;;;;;1.00;0.80;;;;;22.30;101054.00;;;;2069926;28;20218;-60
2022/06/11 03:58:39;;;;;;;1.03;0.80;;;;;22.30;101055.00;;;;2069977;28;20210;-60
2022/06/11 03:59:39;;;;;;;1.33;1.20;;;;;22.30;101043.00;;;;2061807;28;20294;-58
2022/06/11 04:01:59;;;;;;;1.33;1.00;;;;;22.30;101048.00;;;;2070940;28;20249;-58
2022/06/11 04:02:59;;;;;;;1.37;0.87;;;;;22.30;101051.00;;;;2070587;28;20670;-61
2022/06/11 04:04:01;;;;;;;1.17;0.80;;;;;22.30;101055.00;;;;2070918;28;20207;-59
2022/06/11 04:05:03;;;;;;;1.05;0.95;;;;;22.30;101051.00;;;;2069962;28;20297;-56
2022/06/11 04:06:04;;;;;;;1.15;0.80;;;;;22.30;101051.00;;;;2061612;28;20215;-58
2022/06/11 04:07:05;;;;;;;1.13;0.93;;;;;22.30;101057.00;;;;2069984;28;20301;-56
2022/06/11 04:08:05;;;;;;;1.07;0.97;;;;;22.30;101046.00;;;;2070702;28;20218;-58
2022/06/11 04:09:08;;;;;;;1.80;0.90;;;;;22.30;101045.00;;;;2070275;28;20234;-57
2022/06/11 04:10:10;;;;;;;1.35;1.10;;;;;22.30;101050.00;;;;2060981;28;20222;-56
2022/06/11 04:11:10;;;;;;;1.40;1.10;;;;;22.30;101061.00;;;;2062141;28;20298;-58
2022/06/11 04:12:15;;;;;;;1.27;1.10;;;;;22.30;101063.00;;;;2070640;28;20796;-56
2022/06/11 04:13:15;;;;;;;1.50;1.27;;;;;22.40;101060.00;;;;2070816;28;20733;-58
2022/06/11 04:14:16;;;;;;;1.70;1.03;;;;;22.40;101054.00;;;;2069858;28;20214;-57
2022/06/11 04:15:16;;;;;;;1.30;1.20;;;;;22.40;101061.00;;;;2061959;28;20215;-59
2022/06/11 04:16:28;;;;;;;1.10;0.80;;;;;22.40;101054.00;;;;2069830;28;20215;-57
2022/06/11 04:17:31;;;;;;;1.50;0.95;;;;;22.40;101065.00;;;;2061457;28;20723;-58
2022/06/11 04:18:37;;;;;;;0.90;0.70;;;;;22.40;101053.00;;;;2063243;28;20301;-62
2022/06/11 04:19:39;;;;;;;1.00;0.90;;;;;22.40;101055.00;;;;2052791;28;20233;-58
2022/06/11 04:20:39;;;;;;;1.33;0.90;;;;;22.30;101064.00;;;;2061900;28;20215;-58
2022/06/11 04:21:40;;;;;;;1.20;0.90;;;;;22.30;101052.00;;;;2070011;28;20298;-58
2022/06/11 04:22:40;;;;;;;1.10;1.00;;;;;22.30;101053.00;;;;2069963;28;20214;-58
2022/06/11 04:23:43;;;;;;;1.23;1.00;;;;;22.30;101049.00;;;;2069625;28;20756;-58
2022/06/11 04:24:44;;;;;;;1.02;0.82;;;;;22.30;101057.00;;;;2061741;28;20259;-59
2022/06/11 04:25:45;;;;;;;1.50;0.87;;;;;22.40;101060.00;;;;2061527;28;20219;-57
2022/06/11 04:26:47;;;;;;;1.25;0.95;;;;;22.30;101056.00;;;;2070627;28;20280;-56
2022/06/11 04:27:53;;;;;;;1.30;1.00;;;;;22.30;101059.00;;;;2069716;28;20210;-57
2022/06/11 04:28:55;;;;;;;1.35;1.13;;;;;22.30;101059.00;;;;2069559;28;20307;-59
2022/06/11 04:29:56;;;;;;;1.27;1.00;;;;;22.30;101062.00;;;;2070550;28;20225;-57
2022/06/11 04:30:57;;;;;;;1.65;1.25;;;;;22.40;101035.00;;;;2070324;28;20244;-58
2022/06/11 04:31:58;;;;;;;1.08;0.90;;;;;22.40;101058.00;;;;2069729;28;20229;-58
2022/06/11 04:32:58;;;;;;;1.20;0.97;;;;;22.40;101064.00;;;;2061966;28;20213;-58
2022/06/11 04:33:59;;;;;;;0.90;0.80;;;;;22.40;101056.00;;;;2078193;28;20539;-58
2022/06/11 04:35:01;;;;;;;1.30;1.00;;;;;22.40;101049.00;;;;2074971;28;20695;-58
2022/06/11 04:36:01;;;;;;;0.82;0.80;;;;;22.40;101052.00;;;;2062259;28;20289;-60
2022/06/11 04:37:02;;;;;;;1.07;0.80;;;;;22.40;101059.00;;;;2062751;28;20329;-58
2022/06/11 04:38:02;;;;;;;1.03;0.80;;;;;22.40;101057.00;;;;2073615;28;20218;-59
2022/06/11 04:39:03;;;;;;;1.13;0.80;;;;;22.40;101053.00;;;;2071652;28;20214;-60
2022/06/11 04:40:04;;;;;;;1.05;0.80;;;;;22.40;101051.00;;;;2070551;28;20236;-57
2022/06/11 04:41:06;;;;;;;1.70;1.00;;;;;22.40;101061.00;;;;2061964;28;20219;-59
2022/06/11 04:42:06;;;;;;;1.15;0.85;;;;;22.40;101057.00;;;;2062692;28;20527;-58
2022/06/11 04:43:06;;;;;;;1.00;0.90;;;;;22.30;101059.00;;;;2070717;28;20210;-55
2022/06/11 04:44:07;;;;;;;1.30;1.10;;;;;22.40;101000.00;;;;2077505;28;20685;-56
2022/06/11 04:45:07;;;;;;;1.20;1.00;;;;;22.40;101057.00;;;;2075290;28;20718;-61
2022/06/11 04:46:08;;;;;;;1.47;0.90;;;;;22.40;101055.00;;;;2071331;28;20218;-57
2022/06/11 04:47:10;;;;;;;1.40;0.97;;;;;22.40;101065.00;;;;2076973;28;20763;-57
2022/06/11 04:48:10;;;;;;;0.80;0.70;;;;;22.40;101062.00;;;;2063635;28;20215;-58
2022/06/11 04:49:10;;;;;;;1.20;0.83;;;;;22.40;101062.00;;;;2078620;28;20205;-59
2022/06/11 04:50:13;;;;;;;1.20;0.90;;;;;22.40;101063.00;;;;2073473;28;20214;-59
2022/06/11 04:51:14;;;;;;;1.70;1.08;;;;;22.40;101062.00;;;;2057153;28;20234;-61
2022/06/11 04:52:14;;;;;;;1.10;1.00;;;;;22.40;101060.00;;;;2067251;28;20326;-58
2022/06/11 04:53:14;;;;;;;1.50;1.07;;;;;22.40;101061.00;;;;2070612;28;20214;-61
2022/06/11 04:54:15;;;;;;;1.10;1.00;;;;;22.20;101067.00;;;;2063887;28;20282;-58
2022/06/11 04:55:15;;;;;;;1.30;0.80;;;;;22.40;101063.00;;;;2078702;28;20213;-60
2022/06/11 04:56:18;;;;;;;1.10;0.93;;;;;22.40;101060.00;;;;2086944;28;20208;-63
2022/06/11 04:57:19;;;;;;;0.80;0.77;;;;;22.40;101062.00;;;;2074103;28;20210;-59
2022/06/11 04:58:20;;;;;;;0.82;0.60;;;;;22.40;101070.00;;;;2070679;28;20262;-62
2022/06/11 04:59:20;;;;;;;1.13;1.03;;;;;22.40;101070.00;;;;2070484;28;20392;-59
2022/06/11 05:00:23;;;;;;;1.13;0.90;;;;;22.40;101074.00;;;;2074103;28;20210;-58
2022/06/11 05:01:23;;;;;;;1.15;0.90;;;;;22.40;101064.00;;;;2071952;28;20241;-58
2022/06/11 05:02:24;;;;;;;0.80;0.80;;;;;22.40;101062.00;;;;2075522;28;20218;-58
2022/06/11 05:03:25;;;;;;;1.10;1.00;;;;;22.40;101065.00;;;;2075915;28;20201;-59
2022/06/11 05:04:25;;;;;;;1.93;1.00;;;;;22.40;101065.00;;;;2077540;28;20213;-58
2022/06/11 05:05:25;;;;;;;1.57;1.00;;;;;22.40;101073.00;;;;2068540;28;20218;-61
2022/06/11 05:06:28;;;;;;;1.60;1.20;;;;;22.50;101076.00;;;;2068015;28;20224;-59
2022/06/11 05:07:29;;;;;;;1.00;0.90;;;;;22.50;101069.00;;;;2067938;28;20238;-59
2022/06/11 05:08:29;;;;;;;1.40;1.00;;;;;22.50;101066.00;;;;2075383;28;20209;-58
2022/06/11 05:09:30;;;;;;;1.43;0.90;;;;;22.50;101069.00;;;;2079375;28;20217;-56
2022/06/11 05:10:31;;;;;;;1.27;0.90;;;;;22.50;101070.00;;;;2078572;28;20209;-60
2022/06/11 05:11:32;;;;;;;2.00;1.08;;;;;22.50;101077.00;;;;2064057;28;20378;-58
2022/06/11 05:12:32;;;;;;;1.00;0.90;;;;;22.50;101079.00;;;;2077740;28;20218;-57
2022/06/11 05:13:33;;;;;;;1.10;1.00;;;;;22.50;101074.00;;;;2075962;28;20355;-63
2022/06/11 05:14:33;;;;;;;1.10;1.00;;;;;22.50;101081.00;;;;2078743;28;20768;-60
2022/06/11 05:15:34;;;;;;;3.00;0.80;;;;;22.50;101081.00;;;;2066788;28;20586;-59
2022/06/11 05:16:35;;;;;;;1.10;0.82;;;;;22.50;101080.00;;;;2074904;28;20244;-58
2022/06/11 05:17:35;;;;;;;1.30;1.10;;;;;22.50;101079.00;;;;2062552;28;20227;-60
2022/06/11 05:18:36;;;;;;;1.23;1.00;;;;;22.50;101082.00;;;;2061901;28;20223;-58
2022/06/11 05:19:36;;;;;;;1.27;0.97;;;;;22.50;101080.00;;;;2070400;28;20222;-58
2022/06/11 05:20:36;;;;;;;1.50;1.10;;;;;22.50;101087.00;;;;2069782;28;20439;-59
2022/06/11 05:21:37;;;;;;;1.07;0.90;;;;;22.50;101087.00;;;;2077515;28;20567;-58